<?xml version="1.0" encoding="UTF-8"?>
<gpx version="1.1" creator="2bulu-scraper" xmlns="http://www.topografix.com/GPX/1/1">
  <metadata><name>（拆分1） 自贡荣县牛峰山</name><desc>source: 2bulu.com trackId=78205006; exported 2026-09-01T15:00:47.239Z</desc>
    <bounds minlat="29.5361396" minlon="104.264083" maxlat="29.5494797" maxlon="104.2810306"/>
    <link href="https://www.2bulu.com/track/t-mkchN0JGBiDp%252FR2KBg5Tzw%253D%253D.htm"><text>2bulu 源页面</text></link>
  </metadata>

  <trk><name>（拆分1） 自贡荣县牛峰山</name>
      <trkseg>
        <trkpt lat="29.547862" lon="104.2737103"><ele>421.85</ele><time>2026-01-21T18:23:22.000Z</time></trkpt>
        <trkpt lat="29.5478258" lon="104.2738103"><ele>421.85</ele><time>2026-01-21T18:23:27.000Z</time></trkpt>
        <trkpt lat="29.5478545" lon="104.2739204"><ele>423.07</ele><time>2026-01-21T18:23:37.000Z</time></trkpt>
        <trkpt lat="29.5478268" lon="104.2740362"><ele>423</ele><time>2026-01-21T18:23:47.000Z</time></trkpt>
        <trkpt lat="29.5477802" lon="104.2741467"><ele>422.66</ele><time>2026-01-21T18:23:57.000Z</time></trkpt>
        <trkpt lat="29.547744" lon="104.2742622"><ele>422.75</ele><time>2026-01-21T18:24:07.000Z</time></trkpt>
        <trkpt lat="29.5477091" lon="104.2743784"><ele>422.67</ele><time>2026-01-21T18:24:17.000Z</time></trkpt>
        <trkpt lat="29.547655" lon="104.2744788"><ele>422.61</ele><time>2026-01-21T18:24:29.000Z</time></trkpt>
        <trkpt lat="29.5475865" lon="104.2745615"><ele>422.89</ele><time>2026-01-21T18:24:41.000Z</time></trkpt>
        <trkpt lat="29.5474992" lon="104.2746131"><ele>423.16</ele><time>2026-01-21T18:24:51.000Z</time></trkpt>
        <trkpt lat="29.5474038" lon="104.2746545"><ele>423.68</ele><time>2026-01-21T18:25:01.000Z</time></trkpt>
        <trkpt lat="29.5473088" lon="104.2747027"><ele>424.28</ele><time>2026-01-21T18:25:11.000Z</time></trkpt>
        <trkpt lat="29.5472204" lon="104.2747449"><ele>424.83</ele><time>2026-01-21T18:25:21.000Z</time></trkpt>
        <trkpt lat="29.5471384" lon="104.2747913"><ele>424.85</ele><time>2026-01-21T18:25:39.000Z</time></trkpt>
        <trkpt lat="29.5470476" lon="104.2748418"><ele>425.25</ele><time>2026-01-21T18:25:51.000Z</time></trkpt>
        <trkpt lat="29.5469624" lon="104.2748892"><ele>425.37</ele><time>2026-01-21T18:26:01.000Z</time></trkpt>
        <trkpt lat="29.5468844" lon="104.27495"><ele>425.32</ele><time>2026-01-21T18:26:11.000Z</time></trkpt>
        <trkpt lat="29.5467911" lon="104.2750009"><ele>425.66</ele><time>2026-01-21T18:26:21.000Z</time></trkpt>
        <trkpt lat="29.5467016" lon="104.275047"><ele>426.07</ele><time>2026-01-21T18:26:31.000Z</time></trkpt>
        <trkpt lat="29.5466065" lon="104.2750983"><ele>426.71</ele><time>2026-01-21T18:26:43.000Z</time></trkpt>
        <trkpt lat="29.5465177" lon="104.275163"><ele>427.73</ele><time>2026-01-21T18:26:53.000Z</time></trkpt>
        <trkpt lat="29.5464199" lon="104.2752207"><ele>428.93</ele><time>2026-01-21T18:27:03.000Z</time></trkpt>
        <trkpt lat="29.5463259" lon="104.2752556"><ele>429.8</ele><time>2026-01-21T18:27:11.000Z</time></trkpt>
        <trkpt lat="29.5462534" lon="104.2752643"><ele>430.52</ele><time>2026-01-21T18:27:19.000Z</time></trkpt>
        <trkpt lat="29.5461568" lon="104.2752765"><ele>431.17</ele><time>2026-01-21T18:27:33.000Z</time></trkpt>
        <trkpt lat="29.5460552" lon="104.2752845"><ele>432.07</ele><time>2026-01-21T18:27:43.000Z</time></trkpt>
        <trkpt lat="29.5459604" lon="104.2753087"><ele>432.61</ele><time>2026-01-21T18:27:57.000Z</time></trkpt>
        <trkpt lat="29.5458661" lon="104.2753258"><ele>432.96</ele><time>2026-01-21T18:28:07.000Z</time></trkpt>
        <trkpt lat="29.5457616" lon="104.2753326"><ele>433.09</ele><time>2026-01-21T18:28:17.000Z</time></trkpt>
        <trkpt lat="29.5456542" lon="104.275341"><ele>432.99</ele><time>2026-01-21T18:28:27.000Z</time></trkpt>
        <trkpt lat="29.5455519" lon="104.2753406"><ele>432.87</ele><time>2026-01-21T18:28:37.000Z</time></trkpt>
        <trkpt lat="29.5454575" lon="104.2753505"><ele>433.27</ele><time>2026-01-21T18:28:47.000Z</time></trkpt>
        <trkpt lat="29.5453605" lon="104.2753491"><ele>433.76</ele><time>2026-01-21T18:29:11.000Z</time></trkpt>
        <trkpt lat="29.5452603" lon="104.2753395"><ele>434.28</ele><time>2026-01-21T18:29:21.000Z</time></trkpt>
        <trkpt lat="29.5451614" lon="104.2753549"><ele>435</ele><time>2026-01-21T18:29:31.000Z</time></trkpt>
        <trkpt lat="29.54507" lon="104.2753783"><ele>435.7</ele><time>2026-01-21T18:29:41.000Z</time></trkpt>
        <trkpt lat="29.5449906" lon="104.275427"><ele>436.31</ele><time>2026-01-21T18:29:51.000Z</time></trkpt>
        <trkpt lat="29.5449077" lon="104.2754882"><ele>436.81</ele><time>2026-01-21T18:30:01.000Z</time></trkpt>
        <trkpt lat="29.5448338" lon="104.27557"><ele>437.41</ele><time>2026-01-21T18:30:11.000Z</time></trkpt>
        <trkpt lat="29.5448081" lon="104.2756762"><ele>438.46</ele><time>2026-01-21T18:30:21.000Z</time></trkpt>
        <trkpt lat="29.5448208" lon="104.2757914"><ele>438.9</ele><time>2026-01-21T18:30:35.000Z</time></trkpt>
        <trkpt lat="29.5448426" lon="104.2759172"><ele>439.68</ele><time>2026-01-21T18:30:49.000Z</time></trkpt>
        <trkpt lat="29.5448955" lon="104.2760125"><ele>440.96</ele><time>2026-01-21T18:30:59.000Z</time></trkpt>
        <trkpt lat="29.5449329" lon="104.2761151"><ele>442.01</ele><time>2026-01-21T18:31:09.000Z</time></trkpt>
        <trkpt lat="29.5449396" lon="104.2762237"><ele>442.16</ele><time>2026-01-21T18:31:21.000Z</time></trkpt>
        <trkpt lat="29.544988" lon="104.2763148"><ele>442.9</ele><time>2026-01-21T18:31:35.000Z</time></trkpt>
        <trkpt lat="29.5450743" lon="104.2763124"><ele>444.08</ele><time>2026-01-21T18:31:47.000Z</time></trkpt>
        <trkpt lat="29.5451724" lon="104.2762858"><ele>445.17</ele><time>2026-01-21T18:31:57.000Z</time></trkpt>
        <trkpt lat="29.5452708" lon="104.2762869"><ele>446.65</ele><time>2026-01-21T18:32:17.000Z</time></trkpt>
        <trkpt lat="29.5453404" lon="104.2763588"><ele>448.84</ele><time>2026-01-21T18:32:29.000Z</time></trkpt>
        <trkpt lat="29.5453683" lon="104.2764687"><ele>451.45</ele><time>2026-01-21T18:32:41.000Z</time></trkpt>
        <trkpt lat="29.5453367" lon="104.2765759"><ele>453.85</ele><time>2026-01-21T18:32:53.000Z</time></trkpt>
        <trkpt lat="29.5452722" lon="104.2766828"><ele>455.63</ele><time>2026-01-21T18:33:05.000Z</time></trkpt>
        <trkpt lat="29.5452058" lon="104.2767789"><ele>457.08</ele><time>2026-01-21T18:33:15.000Z</time></trkpt>
        <trkpt lat="29.5451397" lon="104.276862"><ele>457.98</ele><time>2026-01-21T18:33:25.000Z</time></trkpt>
        <trkpt lat="29.545071" lon="104.2769377"><ele>459.38</ele><time>2026-01-21T18:33:35.000Z</time></trkpt>
        <trkpt lat="29.54501" lon="104.2770268"><ele>460.75</ele><time>2026-01-21T18:33:45.000Z</time></trkpt>
        <trkpt lat="29.5449726" lon="104.2771351"><ele>462.23</ele><time>2026-01-21T18:33:55.000Z</time></trkpt>
        <trkpt lat="29.5449438" lon="104.2772489"><ele>462.88</ele><time>2026-01-21T18:34:05.000Z</time></trkpt>
        <trkpt lat="29.5449403" lon="104.2773685"><ele>463.51</ele><time>2026-01-21T18:34:15.000Z</time></trkpt>
        <trkpt lat="29.54495" lon="104.2774895"><ele>463.92</ele><time>2026-01-21T18:34:25.000Z</time></trkpt>
        <trkpt lat="29.5449738" lon="104.2776112"><ele>465.13</ele><time>2026-01-21T18:34:37.000Z</time></trkpt>
        <trkpt lat="29.5450134" lon="104.2777222"><ele>466.24</ele><time>2026-01-21T18:34:47.000Z</time></trkpt>
        <trkpt lat="29.5450612" lon="104.2778161"><ele>467.24</ele><time>2026-01-21T18:34:55.000Z</time></trkpt>
        <trkpt lat="29.5451349" lon="104.2778957"><ele>467.99</ele><time>2026-01-21T18:35:05.000Z</time></trkpt>
        <trkpt lat="29.5452057" lon="104.2779762"><ele>468.86</ele><time>2026-01-21T18:35:15.000Z</time></trkpt>
        <trkpt lat="29.5452136" lon="104.2780821"><ele>470.18</ele><time>2026-01-21T18:35:27.000Z</time></trkpt>
        <trkpt lat="29.5451744" lon="104.2781848"><ele>471.99</ele><time>2026-01-21T18:35:39.000Z</time></trkpt>
        <trkpt lat="29.545102" lon="104.2782737"><ele>473.54</ele><time>2026-01-21T18:35:51.000Z</time></trkpt>
        <trkpt lat="29.545001" lon="104.2783258"><ele>475.27</ele><time>2026-01-21T18:36:03.000Z</time></trkpt>
        <trkpt lat="29.5449529" lon="104.278416"><ele>476.6</ele><time>2026-01-21T18:36:19.000Z</time></trkpt>
        <trkpt lat="29.5449553" lon="104.2785185"><ele>478.02</ele><time>2026-01-21T18:36:31.000Z</time></trkpt>
        <trkpt lat="29.5449966" lon="104.278624"><ele>479.17</ele><time>2026-01-21T18:36:43.000Z</time></trkpt>
        <trkpt lat="29.5450474" lon="104.2787202"><ele>480.3</ele><time>2026-01-21T18:36:53.000Z</time></trkpt>
        <trkpt lat="29.5451025" lon="104.2788161"><ele>481.25</ele><time>2026-01-21T18:37:05.000Z</time></trkpt>
        <trkpt lat="29.5451151" lon="104.2789176"><ele>482.09</ele><time>2026-01-21T18:37:17.000Z</time></trkpt>
        <trkpt lat="29.5451015" lon="104.2790215"><ele>482.95</ele><time>2026-01-21T18:37:33.000Z</time></trkpt>
        <trkpt lat="29.5450977" lon="104.2791304"><ele>483.94</ele><time>2026-01-21T18:37:47.000Z</time></trkpt>
        <trkpt lat="29.5451088" lon="104.2792403"><ele>485.02</ele><time>2026-01-21T18:37:57.000Z</time></trkpt>
        <trkpt lat="29.5451231" lon="104.2793483"><ele>485.86</ele><time>2026-01-21T18:38:07.000Z</time></trkpt>
        <trkpt lat="29.5451423" lon="104.2794646"><ele>486.1</ele><time>2026-01-21T18:38:19.000Z</time></trkpt>
        <trkpt lat="29.5451307" lon="104.2795758"><ele>486.29</ele><time>2026-01-21T18:38:29.000Z</time></trkpt>
        <trkpt lat="29.5451056" lon="104.2796874"><ele>486.72</ele><time>2026-01-21T18:38:39.000Z</time></trkpt>
        <trkpt lat="29.5450577" lon="104.2797877"><ele>486.93</ele><time>2026-01-21T18:38:51.000Z</time></trkpt>
        <trkpt lat="29.5449991" lon="104.279875"><ele>488.01</ele><time>2026-01-21T18:39:13.000Z</time></trkpt>
        <trkpt lat="29.5449535" lon="104.2799775"><ele>491.31</ele><time>2026-01-21T18:39:29.000Z</time></trkpt>
        <trkpt lat="29.5449023" lon="104.2799867"><ele>491.53</ele><time>2026-01-21T18:39:35.000Z</time></trkpt>
        <trkpt lat="29.544952" lon="104.2800451"><ele>491.15</ele><time>2026-01-21T18:39:53.000Z</time></trkpt>
        <trkpt lat="29.5450196" lon="104.2801287"><ele>491.21</ele><time>2026-01-21T18:40:03.000Z</time></trkpt>
        <trkpt lat="29.5451018" lon="104.2802026"><ele>491.61</ele><time>2026-01-21T18:40:15.000Z</time></trkpt>
        <trkpt lat="29.5451985" lon="104.2802594"><ele>492.62</ele><time>2026-01-21T18:40:27.000Z</time></trkpt>
        <trkpt lat="29.5452978" lon="104.2803029"><ele>493.52</ele><time>2026-01-21T18:40:39.000Z</time></trkpt>
        <trkpt lat="29.5453614" lon="104.2803825"><ele>494.77</ele><time>2026-01-21T18:40:53.000Z</time></trkpt>
        <trkpt lat="29.5453579" lon="104.2804844"><ele>496.55</ele><time>2026-01-21T18:41:07.000Z</time></trkpt>
        <trkpt lat="29.5452934" lon="104.2805614"><ele>498.45</ele><time>2026-01-21T18:41:25.000Z</time></trkpt>
        <trkpt lat="29.5451968" lon="104.2805895"><ele>500.83</ele><time>2026-01-21T18:41:37.000Z</time></trkpt>
        <trkpt lat="29.5450848" lon="104.2805946"><ele>503</ele><time>2026-01-21T18:41:51.000Z</time></trkpt>
        <trkpt lat="29.5449695" lon="104.2805782"><ele>505.18</ele><time>2026-01-21T18:42:03.000Z</time></trkpt>
        <trkpt lat="29.5448652" lon="104.2805673"><ele>506.96</ele><time>2026-01-21T18:42:15.000Z</time></trkpt>
        <trkpt lat="29.544771" lon="104.2805511"><ele>509.03</ele><time>2026-01-21T18:42:29.000Z</time></trkpt>
        <trkpt lat="29.5446736" lon="104.2805718"><ele>510.85</ele><time>2026-01-21T18:42:39.000Z</time></trkpt>
        <trkpt lat="29.5445801" lon="104.2805932"><ele>513.59</ele><time>2026-01-21T18:42:57.000Z</time></trkpt>
        <trkpt lat="29.5444872" lon="104.280597"><ele>515.07</ele><time>2026-01-21T18:43:13.000Z</time></trkpt>
        <trkpt lat="29.5443912" lon="104.2806087"><ele>516.15</ele><time>2026-01-21T18:43:27.000Z</time></trkpt>
        <trkpt lat="29.5442856" lon="104.2806183"><ele>517.54</ele><time>2026-01-21T18:43:39.000Z</time></trkpt>
        <trkpt lat="29.5441809" lon="104.2806041"><ele>518.8</ele><time>2026-01-21T18:43:49.000Z</time></trkpt>
        <trkpt lat="29.5440819" lon="104.280584"><ele>520.05</ele><time>2026-01-21T18:43:59.000Z</time></trkpt>
        <trkpt lat="29.5440029" lon="104.2805232"><ele>521.87</ele><time>2026-01-21T18:44:11.000Z</time></trkpt>
        <trkpt lat="29.543997" lon="104.2804248"><ele>522.7</ele><time>2026-01-21T18:44:21.000Z</time></trkpt>
        <trkpt lat="29.5439922" lon="104.280304"><ele>522.4</ele><time>2026-01-21T18:44:33.000Z</time></trkpt>
        <trkpt lat="29.5439649" lon="104.2801969"><ele>522.42</ele><time>2026-01-21T18:44:45.000Z</time></trkpt>
        <trkpt lat="29.5439523" lon="104.2800867"><ele>523.27</ele><time>2026-01-21T18:44:59.000Z</time></trkpt>
        <trkpt lat="29.543946" lon="104.279973"><ele>523.96</ele><time>2026-01-21T18:45:19.000Z</time></trkpt>
        <trkpt lat="29.5438968" lon="104.2798758"><ele>525.15</ele><time>2026-01-21T18:45:31.000Z</time></trkpt>
        <trkpt lat="29.5438107" lon="104.279819"><ele>526.07</ele><time>2026-01-21T18:45:43.000Z</time></trkpt>
        <trkpt lat="29.5437247" lon="104.2797539"><ele>526.48</ele><time>2026-01-21T18:45:55.000Z</time></trkpt>
        <trkpt lat="29.543681" lon="104.2796615"><ele>526.08</ele><time>2026-01-21T18:46:05.000Z</time></trkpt>
        <trkpt lat="29.5436639" lon="104.2795521"><ele>525.06</ele><time>2026-01-21T18:46:15.000Z</time></trkpt>
        <trkpt lat="29.5436501" lon="104.2794308"><ele>523.7</ele><time>2026-01-21T18:46:25.000Z</time></trkpt>
        <trkpt lat="29.5436418" lon="104.2793183"><ele>522.71</ele><time>2026-01-21T18:46:35.000Z</time></trkpt>
        <trkpt lat="29.5436364" lon="104.2792068"><ele>521.61</ele><time>2026-01-21T18:46:45.000Z</time></trkpt>
        <trkpt lat="29.5436255" lon="104.2790938"><ele>520.82</ele><time>2026-01-21T18:46:55.000Z</time></trkpt>
        <trkpt lat="29.5436148" lon="104.2789808"><ele>520.32</ele><time>2026-01-21T18:47:05.000Z</time></trkpt>
        <trkpt lat="29.5435913" lon="104.2788741"><ele>519.93</ele><time>2026-01-21T18:47:19.000Z</time></trkpt>
        <trkpt lat="29.5435765" lon="104.2787677"><ele>519.67</ele><time>2026-01-21T18:47:35.000Z</time></trkpt>
        <trkpt lat="29.5435591" lon="104.2786569"><ele>519.21</ele><time>2026-01-21T18:47:47.000Z</time></trkpt>
        <trkpt lat="29.5435053" lon="104.2785757"><ele>518.54</ele><time>2026-01-21T18:47:59.000Z</time></trkpt>
        <trkpt lat="29.543422" lon="104.2785193"><ele>518.41</ele><time>2026-01-21T18:48:11.000Z</time></trkpt>
        <trkpt lat="29.5433184" lon="104.2784905"><ele>518.54</ele><time>2026-01-21T18:48:23.000Z</time></trkpt>
        <trkpt lat="29.5432197" lon="104.2784944"><ele>519.25</ele><time>2026-01-21T18:48:33.000Z</time></trkpt>
        <trkpt lat="29.5431809" lon="104.2785051"><ele>519.95</ele><time>2026-01-21T18:48:35.000Z</time></trkpt>
        <trkpt lat="29.543108" lon="104.2785345"><ele>520.4</ele><time>2026-01-21T18:48:49.000Z</time></trkpt>
        <trkpt lat="29.5430065" lon="104.2785421"><ele>521.49</ele><time>2026-01-21T18:48:59.000Z</time></trkpt>
        <trkpt lat="29.5429034" lon="104.2785314"><ele>522.84</ele><time>2026-01-21T18:49:07.000Z</time></trkpt>
        <trkpt lat="29.5428087" lon="104.2784931"><ele>524.7</ele><time>2026-01-21T18:49:21.000Z</time></trkpt>
        <trkpt lat="29.5427126" lon="104.278439"><ele>525.31</ele><time>2026-01-21T18:49:33.000Z</time></trkpt>
        <trkpt lat="29.5426303" lon="104.2783654"><ele>526.06</ele><time>2026-01-21T18:49:43.000Z</time></trkpt>
        <trkpt lat="29.5425786" lon="104.2782624"><ele>525.96</ele><time>2026-01-21T18:49:55.000Z</time></trkpt>
        <trkpt lat="29.5425306" lon="104.2781525"><ele>525.66</ele><time>2026-01-21T18:50:05.000Z</time></trkpt>
        <trkpt lat="29.5424683" lon="104.2780714"><ele>524.98</ele><time>2026-01-21T18:50:15.000Z</time></trkpt>
        <trkpt lat="29.5423816" lon="104.278013"><ele>524.88</ele><time>2026-01-21T18:50:27.000Z</time></trkpt>
        <trkpt lat="29.5422879" lon="104.2779721"><ele>525.12</ele><time>2026-01-21T18:50:37.000Z</time></trkpt>
        <trkpt lat="29.5421937" lon="104.2779212"><ele>525.94</ele><time>2026-01-21T18:50:49.000Z</time></trkpt>
        <trkpt lat="29.5421002" lon="104.2778671"><ele>527.13</ele><time>2026-01-21T18:50:59.000Z</time></trkpt>
        <trkpt lat="29.5420109" lon="104.2778072"><ele>527.94</ele><time>2026-01-21T18:51:09.000Z</time></trkpt>
        <trkpt lat="29.5419252" lon="104.2777516"><ele>528.81</ele><time>2026-01-21T18:51:19.000Z</time></trkpt>
        <trkpt lat="29.5418363" lon="104.2777016"><ele>529.58</ele><time>2026-01-21T18:51:31.000Z</time></trkpt>
        <trkpt lat="29.541737" lon="104.2776835"><ele>531.05</ele><time>2026-01-21T18:51:46.000Z</time></trkpt>
        <trkpt lat="29.541645" lon="104.2777164"><ele>532.28</ele><time>2026-01-21T18:51:55.000Z</time></trkpt>
        <trkpt lat="29.5415565" lon="104.2777632"><ele>533.03</ele><time>2026-01-21T18:52:05.000Z</time></trkpt>
        <trkpt lat="29.5414677" lon="104.2778088"><ele>533.44</ele><time>2026-01-21T18:52:15.000Z</time></trkpt>
        <trkpt lat="29.5413702" lon="104.2778258"><ele>533.13</ele><time>2026-01-21T18:52:25.000Z</time></trkpt>
        <trkpt lat="29.5412834" lon="104.2777719"><ele>533.04</ele><time>2026-01-21T18:52:39.000Z</time></trkpt>
        <trkpt lat="29.5412114" lon="104.2776855"><ele>533.21</ele><time>2026-01-21T18:52:49.000Z</time></trkpt>
        <trkpt lat="29.5411472" lon="104.2775859"><ele>533.03</ele><time>2026-01-21T18:53:01.000Z</time></trkpt>
        <trkpt lat="29.5410698" lon="104.2775137"><ele>533.25</ele><time>2026-01-21T18:53:11.000Z</time></trkpt>
        <trkpt lat="29.5409798" lon="104.2774755"><ele>533.95</ele><time>2026-01-21T18:53:21.000Z</time></trkpt>
        <trkpt lat="29.540887" lon="104.2774493"><ele>535.02</ele><time>2026-01-21T18:53:34.000Z</time></trkpt>
        <trkpt lat="29.5407973" lon="104.2774011"><ele>536.25</ele><time>2026-01-21T18:53:45.000Z</time></trkpt>
        <trkpt lat="29.5406999" lon="104.2773959"><ele>537.37</ele><time>2026-01-21T18:53:57.000Z</time></trkpt>
        <trkpt lat="29.5406079" lon="104.2774377"><ele>539.06</ele><time>2026-01-21T18:54:09.000Z</time></trkpt>
        <trkpt lat="29.5405365" lon="104.2775173"><ele>540.99</ele><time>2026-01-21T18:54:19.000Z</time></trkpt>
        <trkpt lat="29.5404809" lon="104.2776173"><ele>542.41</ele><time>2026-01-21T18:54:29.000Z</time></trkpt>
        <trkpt lat="29.5404272" lon="104.2777215"><ele>543.63</ele><time>2026-01-21T18:54:39.000Z</time></trkpt>
        <trkpt lat="29.5403538" lon="104.2778068"><ele>543.96</ele><time>2026-01-21T18:54:49.000Z</time></trkpt>
        <trkpt lat="29.5402629" lon="104.2778464"><ele>544.08</ele><time>2026-01-21T18:54:59.000Z</time></trkpt>
        <trkpt lat="29.5401685" lon="104.2778623"><ele>544.43</ele><time>2026-01-21T18:55:09.000Z</time></trkpt>
        <trkpt lat="29.540066" lon="104.2778613"><ele>544.6</ele><time>2026-01-21T18:55:21.000Z</time></trkpt>
        <trkpt lat="29.5399689" lon="104.2778645"><ele>545.02</ele><time>2026-01-21T18:55:33.000Z</time></trkpt>
        <trkpt lat="29.5398644" lon="104.2778757"><ele>545.71</ele><time>2026-01-21T18:55:53.000Z</time></trkpt>
        <trkpt lat="29.5397677" lon="104.2778735"><ele>546.79</ele><time>2026-01-21T18:56:05.000Z</time></trkpt>
        <trkpt lat="29.5396765" lon="104.2778918"><ele>547.85</ele><time>2026-01-21T18:56:27.000Z</time></trkpt>
        <trkpt lat="29.5395854" lon="104.2779383"><ele>549.35</ele><time>2026-01-21T18:57:21.000Z</time></trkpt>
        <trkpt lat="29.5395003" lon="104.2780075"><ele>550.83</ele><time>2026-01-21T18:57:33.000Z</time></trkpt>
        <trkpt lat="29.539411" lon="104.2780713"><ele>552.23</ele><time>2026-01-21T18:57:47.000Z</time></trkpt>
        <trkpt lat="29.5393556" lon="104.2781203"><ele>553.66</ele><time>2026-01-21T18:58:05.000Z</time></trkpt>
        <trkpt lat="29.5392811" lon="104.2781667"><ele>555.01</ele><time>2026-01-21T18:58:57.000Z</time></trkpt>
        <trkpt lat="29.5392134" lon="104.2782403"><ele>556.67</ele><time>2026-01-21T18:59:25.000Z</time></trkpt>
        <trkpt lat="29.5391451" lon="104.2783208"><ele>558.56</ele><time>2026-01-21T18:59:39.000Z</time></trkpt>
        <trkpt lat="29.5390701" lon="104.2783937"><ele>560.52</ele><time>2026-01-21T18:59:51.000Z</time></trkpt>
        <trkpt lat="29.5389958" lon="104.2784733"><ele>561.86</ele><time>2026-01-21T19:00:03.000Z</time></trkpt>
        <trkpt lat="29.5389303" lon="104.2785503"><ele>563.1</ele><time>2026-01-21T19:00:13.000Z</time></trkpt>
        <trkpt lat="29.5388825" lon="104.2786489"><ele>563.57</ele><time>2026-01-21T19:00:27.000Z</time></trkpt>
        <trkpt lat="29.5388358" lon="104.2787412"><ele>564.03</ele><time>2026-01-21T19:01:25.000Z</time></trkpt>
        <trkpt lat="29.5387942" lon="104.2788408"><ele>564.26</ele><time>2026-01-21T19:01:43.000Z</time></trkpt>
        <trkpt lat="29.538774" lon="104.2789484"><ele>565.44</ele><time>2026-01-21T19:01:55.000Z</time></trkpt>
        <trkpt lat="29.5387461" lon="104.2790569"><ele>566.71</ele><time>2026-01-21T19:02:05.000Z</time></trkpt>
        <trkpt lat="29.5387212" lon="104.2791496"><ele>567.99</ele><time>2026-01-21T19:02:17.000Z</time></trkpt>
        <trkpt lat="29.5386963" lon="104.2792477"><ele>568.79</ele><time>2026-01-21T19:02:31.000Z</time></trkpt>
        <trkpt lat="29.5386636" lon="104.2793471"><ele>569.5</ele><time>2026-01-21T19:02:43.000Z</time></trkpt>
        <trkpt lat="29.5386067" lon="104.2794283"><ele>569.63</ele><time>2026-01-21T19:03:15.000Z</time></trkpt>
        <trkpt lat="29.5385254" lon="104.2794842"><ele>570.08</ele><time>2026-01-21T19:03:31.000Z</time></trkpt>
        <trkpt lat="29.5384474" lon="104.2795637"><ele>571.4</ele><time>2026-01-21T19:03:41.000Z</time></trkpt>
        <trkpt lat="29.5383994" lon="104.2796267"><ele>573.75</ele><time>2026-01-21T19:03:49.000Z</time></trkpt>
        <trkpt lat="29.5383322" lon="104.279695"><ele>576.43</ele><time>2026-01-21T19:04:29.000Z</time></trkpt>
        <trkpt lat="29.5382687" lon="104.279781"><ele>576.03</ele><time>2026-01-21T19:04:43.000Z</time></trkpt>
        <trkpt lat="29.5382119" lon="104.279868"><ele>576.68</ele><time>2026-01-21T19:05:23.000Z</time></trkpt>
        <trkpt lat="29.5381867" lon="104.2799773"><ele>575.72</ele><time>2026-01-21T19:05:41.000Z</time></trkpt>
        <trkpt lat="29.5381605" lon="104.2800915"><ele>574.8</ele><time>2026-01-21T19:08:13.000Z</time></trkpt>
        <trkpt lat="29.5381095" lon="104.2801766"><ele>574.19</ele><time>2026-01-21T19:08:37.000Z</time></trkpt>
        <trkpt lat="29.5380623" lon="104.2802621"><ele>573.57</ele><time>2026-01-21T19:08:49.000Z</time></trkpt>
        <trkpt lat="29.5380257" lon="104.2803594"><ele>573.51</ele><time>2026-01-21T19:09:05.000Z</time></trkpt>
        <trkpt lat="29.5379944" lon="104.2804661"><ele>574.47</ele><time>2026-01-21T19:09:23.000Z</time></trkpt>
        <trkpt lat="29.537971" lon="104.280575"><ele>576.02</ele><time>2026-01-21T19:09:39.000Z</time></trkpt>
        <trkpt lat="29.5379654" lon="104.2806939"><ele>577.51</ele><time>2026-01-21T19:10:07.000Z</time></trkpt>
        <trkpt lat="29.5379664" lon="104.2808057"><ele>579.08</ele><time>2026-01-21T19:10:21.000Z</time></trkpt>
        <trkpt lat="29.5379107" lon="104.2808808"><ele>580.51</ele><time>2026-01-21T19:10:49.000Z</time></trkpt>
        <trkpt lat="29.5378218" lon="104.2809298"><ele>581.52</ele><time>2026-01-21T19:11:27.000Z</time></trkpt>
        <trkpt lat="29.5377184" lon="104.2809171"><ele>583.17</ele><time>2026-01-21T19:12:15.000Z</time></trkpt>
        <trkpt lat="29.5376331" lon="104.280958"><ele>584.09</ele><time>2026-01-21T19:12:31.000Z</time></trkpt>
        <trkpt lat="29.5375461" lon="104.2810023"><ele>585.67</ele><time>2026-01-21T19:12:47.000Z</time></trkpt>
        <trkpt lat="29.5374539" lon="104.2810306"><ele>587.86</ele><time>2026-01-21T19:13:01.000Z</time></trkpt>
        <trkpt lat="29.5373595" lon="104.2810298"><ele>589.59</ele><time>2026-01-21T19:13:17.000Z</time></trkpt>
        <trkpt lat="29.537278" lon="104.2809762"><ele>591.58</ele><time>2026-01-21T19:13:37.000Z</time></trkpt>
        <trkpt lat="29.5372145" lon="104.280889"><ele>594.34</ele><time>2026-01-21T19:13:55.000Z</time></trkpt>
        <trkpt lat="29.53717" lon="104.2807775"><ele>596.87</ele><time>2026-01-21T19:14:33.000Z</time></trkpt>
        <trkpt lat="29.5371522" lon="104.2806541"><ele>599.49</ele><time>2026-01-21T19:14:47.000Z</time></trkpt>
        <trkpt lat="29.5371348" lon="104.2805434"><ele>601.36</ele><time>2026-01-21T19:15:31.000Z</time></trkpt>
        <trkpt lat="29.5371248" lon="104.280437"><ele>602.39</ele><time>2026-01-21T19:15:41.000Z</time></trkpt>
        <trkpt lat="29.5371124" lon="104.2803224"><ele>602.11</ele><time>2026-01-21T19:15:51.000Z</time></trkpt>
        <trkpt lat="29.5371042" lon="104.2802092"><ele>602.05</ele><time>2026-01-21T19:16:01.000Z</time></trkpt>
        <trkpt lat="29.5371374" lon="104.2801124"><ele>602</ele><time>2026-01-21T19:16:13.000Z</time></trkpt>
        <trkpt lat="29.5371999" lon="104.2800279"><ele>602.58</ele><time>2026-01-21T19:16:25.000Z</time></trkpt>
        <trkpt lat="29.5372631" lon="104.2799406"><ele>603.58</ele><time>2026-01-21T19:16:35.000Z</time></trkpt>
        <trkpt lat="29.537329" lon="104.2798534"><ele>604.38</ele><time>2026-01-21T19:16:45.000Z</time></trkpt>
        <trkpt lat="29.5374046" lon="104.2797736"><ele>606.05</ele><time>2026-01-21T19:16:57.000Z</time></trkpt>
        <trkpt lat="29.537471" lon="104.2796826"><ele>607.25</ele><time>2026-01-21T19:17:09.000Z</time></trkpt>
        <trkpt lat="29.5374862" lon="104.2795738"><ele>607.49</ele><time>2026-01-21T19:18:17.000Z</time></trkpt>
        <trkpt lat="29.5375286" lon="104.2794662"><ele>608.32</ele><time>2026-01-21T19:18:29.000Z</time></trkpt>
        <trkpt lat="29.5374992" lon="104.2793624"><ele>609.49</ele><time>2026-01-21T19:18:43.000Z</time></trkpt>
        <trkpt lat="29.5374198" lon="104.2792994"><ele>609.75</ele><time>2026-01-21T19:18:55.000Z</time></trkpt>
        <trkpt lat="29.537349" lon="104.2792111"><ele>610.61</ele><time>2026-01-21T19:19:07.000Z</time></trkpt>
        <trkpt lat="29.5373321" lon="104.2791936"><ele>611.8</ele><time>2026-01-21T19:19:09.000Z</time></trkpt>
        <trkpt lat="29.5372648" lon="104.2791839"><ele>611.79</ele><time>2026-01-21T19:19:35.000Z</time></trkpt>
        <trkpt lat="29.5371613" lon="104.2791943"><ele>611.8</ele><time>2026-01-21T19:19:47.000Z</time></trkpt>
        <trkpt lat="29.5370525" lon="104.2791875"><ele>612.33</ele><time>2026-01-21T19:19:59.000Z</time></trkpt>
        <trkpt lat="29.5369554" lon="104.279153"><ele>612.28</ele><time>2026-01-21T19:20:09.000Z</time></trkpt>
        <trkpt lat="29.5369025" lon="104.2790526"><ele>612.45</ele><time>2026-01-21T19:20:21.000Z</time></trkpt>
        <trkpt lat="29.5369039" lon="104.2789347"><ele>612.81</ele><time>2026-01-21T19:20:33.000Z</time></trkpt>
        <trkpt lat="29.5369292" lon="104.2788213"><ele>612.98</ele><time>2026-01-21T19:20:45.000Z</time></trkpt>
        <trkpt lat="29.536968" lon="104.2787097"><ele>613.36</ele><time>2026-01-21T19:20:59.000Z</time></trkpt>
        <trkpt lat="29.536984" lon="104.2785971"><ele>614.61</ele><time>2026-01-21T19:21:17.000Z</time></trkpt>
        <trkpt lat="29.5369743" lon="104.2784878"><ele>615.96</ele><time>2026-01-21T19:21:31.000Z</time></trkpt>
        <trkpt lat="29.536902" lon="104.2784218"><ele>617.35</ele><time>2026-01-21T19:21:53.000Z</time></trkpt>
        <trkpt lat="29.5368176" lon="104.2783587"><ele>617.67</ele><time>2026-01-21T19:22:03.000Z</time></trkpt>
        <trkpt lat="29.5367419" lon="104.2782851"><ele>617.95</ele><time>2026-01-21T19:22:13.000Z</time></trkpt>
        <trkpt lat="29.5366522" lon="104.278257"><ele>618.62</ele><time>2026-01-21T19:22:29.000Z</time></trkpt>
        <trkpt lat="29.53656" lon="104.2782849"><ele>619.61</ele><time>2026-01-21T19:22:41.000Z</time></trkpt>
        <trkpt lat="29.5364597" lon="104.278316"><ele>620.33</ele><time>2026-01-21T19:22:53.000Z</time></trkpt>
        <trkpt lat="29.5363555" lon="104.2783392"><ele>620.54</ele><time>2026-01-21T19:23:05.000Z</time></trkpt>
        <trkpt lat="29.5362603" lon="104.2783543"><ele>620.4</ele><time>2026-01-21T19:23:15.000Z</time></trkpt>
        <trkpt lat="29.5362135" lon="104.278361"><ele>619.58</ele><time>2026-01-21T19:23:23.000Z</time></trkpt>
        <trkpt lat="29.5361396" lon="104.2783382"><ele>618.77</ele><time>2026-01-21T19:27:12.000Z</time></trkpt>
        <trkpt lat="29.5362288" lon="104.2783542"><ele>617.99</ele><time>2026-01-21T19:29:59.000Z</time></trkpt>
        <trkpt lat="29.5363253" lon="104.2783488"><ele>617.64</ele><time>2026-01-21T19:30:15.000Z</time></trkpt>
        <trkpt lat="29.5364261" lon="104.2783361"><ele>617.71</ele><time>2026-01-21T19:30:27.000Z</time></trkpt>
        <trkpt lat="29.5365272" lon="104.2783108"><ele>617.81</ele><time>2026-01-21T19:30:37.000Z</time></trkpt>
        <trkpt lat="29.5366265" lon="104.2782736"><ele>617.96</ele><time>2026-01-21T19:30:51.000Z</time></trkpt>
        <trkpt lat="29.5367269" lon="104.2782481"><ele>617.94</ele><time>2026-01-21T19:31:03.000Z</time></trkpt>
        <trkpt lat="29.5368197" lon="104.2782244"><ele>617.24</ele><time>2026-01-21T19:31:13.000Z</time></trkpt>
        <trkpt lat="29.5369163" lon="104.2782505"><ele>617.03</ele><time>2026-01-21T19:31:25.000Z</time></trkpt>
        <trkpt lat="29.5370183" lon="104.2782625"><ele>617.46</ele><time>2026-01-21T19:31:39.000Z</time></trkpt>
        <trkpt lat="29.5371164" lon="104.278234"><ele>618.05</ele><time>2026-01-21T19:31:53.000Z</time></trkpt>
        <trkpt lat="29.5372017" lon="104.2781889"><ele>618.41</ele><time>2026-01-21T19:32:05.000Z</time></trkpt>
        <trkpt lat="29.5372928" lon="104.2781334"><ele>617.68</ele><time>2026-01-21T19:32:17.000Z</time></trkpt>
        <trkpt lat="29.5373923" lon="104.2780881"><ele>617.24</ele><time>2026-01-21T19:32:29.000Z</time></trkpt>
        <trkpt lat="29.5374848" lon="104.2780587"><ele>616.58</ele><time>2026-01-21T19:32:39.000Z</time></trkpt>
        <trkpt lat="29.5375827" lon="104.2780183"><ele>615.2</ele><time>2026-01-21T19:32:49.000Z</time></trkpt>
        <trkpt lat="29.5376563" lon="104.2779466"><ele>613.36</ele><time>2026-01-21T19:32:59.000Z</time></trkpt>
        <trkpt lat="29.5377032" lon="104.2778537"><ele>611.59</ele><time>2026-01-21T19:33:09.000Z</time></trkpt>
        <trkpt lat="29.5377662" lon="104.2777715"><ele>609.93</ele><time>2026-01-21T19:33:19.000Z</time></trkpt>
        <trkpt lat="29.5378567" lon="104.2777416"><ele>608</ele><time>2026-01-21T19:33:29.000Z</time></trkpt>
        <trkpt lat="29.5379517" lon="104.2777438"><ele>606.26</ele><time>2026-01-21T19:33:39.000Z</time></trkpt>
        <trkpt lat="29.538047" lon="104.2777662"><ele>605.07</ele><time>2026-01-21T19:33:49.000Z</time></trkpt>
        <trkpt lat="29.5381353" lon="104.2778301"><ele>603.65</ele><time>2026-01-21T19:34:01.000Z</time></trkpt>
        <trkpt lat="29.5382075" lon="104.2779118"><ele>602.55</ele><time>2026-01-21T19:34:11.000Z</time></trkpt>
        <trkpt lat="29.538282" lon="104.2779812"><ele>602.12</ele><time>2026-01-21T19:34:21.000Z</time></trkpt>
        <trkpt lat="29.538374" lon="104.2780108"><ele>601.61</ele><time>2026-01-21T19:34:33.000Z</time></trkpt>
        <trkpt lat="29.5384731" lon="104.2780171"><ele>601.49</ele><time>2026-01-21T19:34:45.000Z</time></trkpt>
        <trkpt lat="29.5385705" lon="104.2780108"><ele>601.95</ele><time>2026-01-21T19:34:57.000Z</time></trkpt>
        <trkpt lat="29.5386629" lon="104.2780014"><ele>602.72</ele><time>2026-01-21T19:35:09.000Z</time></trkpt>
        <trkpt lat="29.5387623" lon="104.2779889"><ele>603.73</ele><time>2026-01-21T19:35:21.000Z</time></trkpt>
        <trkpt lat="29.5388543" lon="104.2779625"><ele>604.72</ele><time>2026-01-21T19:35:45.000Z</time></trkpt>
        <trkpt lat="29.538935" lon="104.2779091"><ele>605.84</ele><time>2026-01-21T19:36:11.000Z</time></trkpt>
        <trkpt lat="29.5389975" lon="104.2778221"><ele>606.82</ele><time>2026-01-21T19:36:35.000Z</time></trkpt>
        <trkpt lat="29.5390567" lon="104.2777197"><ele>608.19</ele><time>2026-01-21T19:36:47.000Z</time></trkpt>
        <trkpt lat="29.5391132" lon="104.2776148"><ele>608.81</ele><time>2026-01-21T19:36:59.000Z</time></trkpt>
        <trkpt lat="29.5391667" lon="104.2775136"><ele>609.56</ele><time>2026-01-21T19:37:09.000Z</time></trkpt>
        <trkpt lat="29.5392153" lon="104.2774049"><ele>610.23</ele><time>2026-01-21T19:37:21.000Z</time></trkpt>
        <trkpt lat="29.5392727" lon="104.2773026"><ele>610.8</ele><time>2026-01-21T19:37:33.000Z</time></trkpt>
        <trkpt lat="29.5393213" lon="104.2772084"><ele>611.15</ele><time>2026-01-21T19:37:43.000Z</time></trkpt>
        <trkpt lat="29.5393676" lon="104.277112"><ele>611.69</ele><time>2026-01-21T19:37:57.000Z</time></trkpt>
        <trkpt lat="29.5394035" lon="104.2770098"><ele>611.99</ele><time>2026-01-21T19:38:21.000Z</time></trkpt>
        <trkpt lat="29.5394164" lon="104.2768975"><ele>612.64</ele><time>2026-01-21T19:39:03.000Z</time></trkpt>
        <trkpt lat="29.5394168" lon="104.2769596"><ele>613.05</ele><time>2026-01-21T19:39:19.000Z</time></trkpt>
        <trkpt lat="29.5394377" lon="104.2770726"><ele>613.54</ele><time>2026-01-21T19:39:31.000Z</time></trkpt>
        <trkpt lat="29.5394942" lon="104.2771768"><ele>613.75</ele><time>2026-01-21T19:39:47.000Z</time></trkpt>
        <trkpt lat="29.5395433" lon="104.2771361"><ele>613.55</ele><time>2026-01-21T19:40:29.000Z</time></trkpt>
        <trkpt lat="29.5395817" lon="104.2770349"><ele>615.22</ele><time>2026-01-21T19:40:41.000Z</time></trkpt>
        <trkpt lat="29.5396055" lon="104.2769252"><ele>617.52</ele><time>2026-01-21T19:40:55.000Z</time></trkpt>
        <trkpt lat="29.5396707" lon="104.276852"><ele>620.08</ele><time>2026-01-21T19:41:27.000Z</time></trkpt>
        <trkpt lat="29.5397467" lon="104.2767891"><ele>622.11</ele><time>2026-01-21T19:41:43.000Z</time></trkpt>
        <trkpt lat="29.539783" lon="104.2766977"><ele>623.61</ele><time>2026-01-21T19:41:59.000Z</time></trkpt>
        <trkpt lat="29.5398258" lon="104.2766019"><ele>626</ele><time>2026-01-21T19:42:27.000Z</time></trkpt>
        <trkpt lat="29.5398925" lon="104.2765334"><ele>629</ele><time>2026-01-21T19:42:57.000Z</time></trkpt>
        <trkpt lat="29.5399752" lon="104.2764873"><ele>632.68</ele><time>2026-01-21T19:43:19.000Z</time></trkpt>
        <trkpt lat="29.5400592" lon="104.2764368"><ele>635.99</ele><time>2026-01-21T19:43:43.000Z</time></trkpt>
        <trkpt lat="29.540142" lon="104.2763853"><ele>639.66</ele><time>2026-01-21T19:44:07.000Z</time></trkpt>
        <trkpt lat="29.5402079" lon="104.2763097"><ele>642.73</ele><time>2026-01-21T19:44:25.000Z</time></trkpt>
        <trkpt lat="29.5402791" lon="104.2762443"><ele>644.74</ele><time>2026-01-21T19:44:41.000Z</time></trkpt>
        <trkpt lat="29.5403548" lon="104.2761739"><ele>645.74</ele><time>2026-01-21T19:44:53.000Z</time></trkpt>
        <trkpt lat="29.5404316" lon="104.2761081"><ele>646.48</ele><time>2026-01-21T19:45:21.000Z</time></trkpt>
        <trkpt lat="29.5404821" lon="104.2760164"><ele>648.44</ele><time>2026-01-21T19:46:35.000Z</time></trkpt>
        <trkpt lat="29.5405107" lon="104.2759113"><ele>652.3</ele><time>2026-01-21T19:46:53.000Z</time></trkpt>
        <trkpt lat="29.5405657" lon="104.2758152"><ele>656.13</ele><time>2026-01-21T19:47:11.000Z</time></trkpt>
        <trkpt lat="29.5406135" lon="104.2757154"><ele>658.9</ele><time>2026-01-21T19:58:16.000Z</time></trkpt>
        <trkpt lat="29.540663" lon="104.2756222"><ele>660.25</ele><time>2026-01-21T19:58:31.000Z</time></trkpt>
        <trkpt lat="29.5406897" lon="104.2755217"><ele>661.82</ele><time>2026-01-21T19:58:52.000Z</time></trkpt>
        <trkpt lat="29.5406912" lon="104.2754181"><ele>663.44</ele><time>2026-01-21T19:59:26.000Z</time></trkpt>
        <trkpt lat="29.5406939" lon="104.2753115"><ele>666.14</ele><time>2026-01-21T19:59:58.000Z</time></trkpt>
        <trkpt lat="29.540668" lon="104.2752098"><ele>668.18</ele><time>2026-01-21T20:00:20.000Z</time></trkpt>
        <trkpt lat="29.5406648" lon="104.275096"><ele>668.89</ele><time>2026-01-21T20:00:30.000Z</time></trkpt>
        <trkpt lat="29.5406654" lon="104.2749791"><ele>669.24</ele><time>2026-01-21T20:00:44.000Z</time></trkpt>
        <trkpt lat="29.5406537" lon="104.2748698"><ele>670.15</ele><time>2026-01-21T20:00:58.000Z</time></trkpt>
        <trkpt lat="29.5406466" lon="104.2747579"><ele>670.32</ele><time>2026-01-21T20:01:12.000Z</time></trkpt>
        <trkpt lat="29.5406213" lon="104.2746428"><ele>669.8</ele><time>2026-01-21T20:01:46.000Z</time></trkpt>
        <trkpt lat="29.5405857" lon="104.2745409"><ele>667.18</ele><time>2026-01-21T20:02:04.000Z</time></trkpt>
        <trkpt lat="29.5405397" lon="104.2744404"><ele>665.45</ele><time>2026-01-21T20:02:18.000Z</time></trkpt>
        <trkpt lat="29.5404988" lon="104.2743545"><ele>664.18</ele><time>2026-01-21T20:02:34.000Z</time></trkpt>
        <trkpt lat="29.5404742" lon="104.2742589"><ele>663.16</ele><time>2026-01-21T20:03:02.000Z</time></trkpt>
        <trkpt lat="29.5404389" lon="104.2741649"><ele>664.42</ele><time>2026-01-21T20:03:22.000Z</time></trkpt>
        <trkpt lat="29.5404216" lon="104.274063"><ele>665.82</ele><time>2026-01-21T20:03:38.000Z</time></trkpt>
        <trkpt lat="29.5404331" lon="104.2739573"><ele>667.75</ele><time>2026-01-21T20:03:55.000Z</time></trkpt>
        <trkpt lat="29.5404427" lon="104.2738479"><ele>669.67</ele><time>2026-01-21T20:04:14.000Z</time></trkpt>
        <trkpt lat="29.5404209" lon="104.2737478"><ele>672.22</ele><time>2026-01-21T20:04:30.000Z</time></trkpt>
        <trkpt lat="29.5403724" lon="104.2736588"><ele>673.36</ele><time>2026-01-21T20:04:46.000Z</time></trkpt>
        <trkpt lat="29.5403045" lon="104.273581"><ele>674.97</ele><time>2026-01-21T20:05:00.000Z</time></trkpt>
        <trkpt lat="29.5402146" lon="104.2735377"><ele>676.74</ele><time>2026-01-21T20:05:38.000Z</time></trkpt>
        <trkpt lat="29.5401285" lon="104.2734913"><ele>678.55</ele><time>2026-01-21T20:06:00.000Z</time></trkpt>
        <trkpt lat="29.5400877" lon="104.2734047"><ele>680.22</ele><time>2026-01-21T20:06:18.000Z</time></trkpt>
        <trkpt lat="29.5401457" lon="104.2733485"><ele>680.98</ele><time>2026-01-21T20:07:08.000Z</time></trkpt>
        <trkpt lat="29.5401806" lon="104.2732481"><ele>684.73</ele><time>2026-01-21T20:09:20.000Z</time></trkpt>
        <trkpt lat="29.5401877" lon="104.2731387"><ele>688.35</ele><time>2026-01-21T20:09:36.000Z</time></trkpt>
        <trkpt lat="29.5401312" lon="104.27304"><ele>689.94</ele><time>2026-01-21T20:09:50.000Z</time></trkpt>
        <trkpt lat="29.5400974" lon="104.272952"><ele>690.36</ele><time>2026-01-21T20:10:02.000Z</time></trkpt>
        <trkpt lat="29.5400846" lon="104.2728497"><ele>690.81</ele><time>2026-01-21T20:11:56.000Z</time></trkpt>
        <trkpt lat="29.5400815" lon="104.272746"><ele>693.78</ele><time>2026-01-21T20:12:22.000Z</time></trkpt>
        <trkpt lat="29.5400428" lon="104.2726529"><ele>696.2</ele><time>2026-01-21T20:12:40.000Z</time></trkpt>
        <trkpt lat="29.5399797" lon="104.2725667"><ele>697.01</ele><time>2026-01-21T20:13:13.000Z</time></trkpt>
        <trkpt lat="29.5399132" lon="104.2724785"><ele>697.43</ele><time>2026-01-21T20:13:26.000Z</time></trkpt>
        <trkpt lat="29.5398282" lon="104.2724343"><ele>697.25</ele><time>2026-01-21T20:13:41.000Z</time></trkpt>
        <trkpt lat="29.5397356" lon="104.2724064"><ele>696.96</ele><time>2026-01-21T20:13:54.000Z</time></trkpt>
        <trkpt lat="29.539659" lon="104.2723856"><ele>696.56</ele><time>2026-01-21T20:14:12.000Z</time></trkpt>
        <trkpt lat="29.5395717" lon="104.2723551"><ele>695.16</ele><time>2026-01-21T20:14:32.000Z</time></trkpt>
        <trkpt lat="29.5394973" lon="104.2722856"><ele>692.75</ele><time>2026-01-21T20:14:46.000Z</time></trkpt>
        <trkpt lat="29.5394157" lon="104.2722061"><ele>689.3</ele><time>2026-01-21T20:14:58.000Z</time></trkpt>
        <trkpt lat="29.5393264" lon="104.2721423"><ele>686.81</ele><time>2026-01-21T20:15:22.000Z</time></trkpt>
        <trkpt lat="29.5392866" lon="104.2720669"><ele>685.22</ele><time>2026-01-21T20:15:36.000Z</time></trkpt>
        <trkpt lat="29.5392413" lon="104.271975"><ele>682.69</ele><time>2026-01-21T20:15:54.000Z</time></trkpt>
        <trkpt lat="29.5392191" lon="104.2718666"><ele>680.74</ele><time>2026-01-21T20:16:16.000Z</time></trkpt>
        <trkpt lat="29.5391827" lon="104.2717583"><ele>678.3</ele><time>2026-01-21T20:16:28.000Z</time></trkpt>
        <trkpt lat="29.5391656" lon="104.2716475"><ele>676.4</ele><time>2026-01-21T20:16:42.000Z</time></trkpt>
        <trkpt lat="29.5391394" lon="104.2715339"><ele>674.91</ele><time>2026-01-21T20:16:54.000Z</time></trkpt>
        <trkpt lat="29.5390799" lon="104.2714399"><ele>674</ele><time>2026-01-21T20:17:08.000Z</time></trkpt>
        <trkpt lat="29.539026" lon="104.2713461"><ele>673.76</ele><time>2026-01-21T20:17:24.000Z</time></trkpt>
        <trkpt lat="29.5389531" lon="104.2712641"><ele>673.33</ele><time>2026-01-21T20:17:42.000Z</time></trkpt>
        <trkpt lat="29.5389059" lon="104.2711715"><ele>673.24</ele><time>2026-01-21T20:18:06.000Z</time></trkpt>
        <trkpt lat="29.5388992" lon="104.2711486"><ele>672.64</ele><time>2026-01-21T20:18:08.000Z</time></trkpt>
        <trkpt lat="29.5388444" lon="104.2711096"><ele>672.29</ele><time>2026-01-21T20:18:38.000Z</time></trkpt>
        <trkpt lat="29.5387639" lon="104.2710658"><ele>671.83</ele><time>2026-01-21T20:18:54.000Z</time></trkpt>
        <trkpt lat="29.5386926" lon="104.2709868"><ele>672.47</ele><time>2026-01-21T20:19:14.000Z</time></trkpt>
        <trkpt lat="29.5386289" lon="104.2708929"><ele>673.14</ele><time>2026-01-21T20:19:38.000Z</time></trkpt>
        <trkpt lat="29.5385488" lon="104.2708268"><ele>673.53</ele><time>2026-01-21T20:21:00.000Z</time></trkpt>
        <trkpt lat="29.5385091" lon="104.27073"><ele>674.76</ele><time>2026-01-21T20:21:20.000Z</time></trkpt>
        <trkpt lat="29.5384785" lon="104.2707046"><ele>676.03</ele><time>2026-01-21T20:21:28.000Z</time></trkpt>
        <trkpt lat="29.5384255" lon="104.2706388"><ele>676.85</ele><time>2026-01-21T20:21:58.000Z</time></trkpt>
        <trkpt lat="29.5383632" lon="104.2705537"><ele>677.56</ele><time>2026-01-21T20:22:14.000Z</time></trkpt>
        <trkpt lat="29.5382855" lon="104.2704812"><ele>678.39</ele><time>2026-01-21T20:23:30.000Z</time></trkpt>
        <trkpt lat="29.5382353" lon="104.2703948"><ele>679.19</ele><time>2026-01-21T20:23:52.000Z</time></trkpt>
        <trkpt lat="29.5381571" lon="104.2703486"><ele>678.92</ele><time>2026-01-21T20:24:14.000Z</time></trkpt>
        <trkpt lat="29.538069" lon="104.2703292"><ele>678.34</ele><time>2026-01-21T20:25:06.000Z</time></trkpt>
        <trkpt lat="29.5379957" lon="104.270272"><ele>676.17</ele><time>2026-01-21T20:25:44.000Z</time></trkpt>
        <trkpt lat="29.5379112" lon="104.2702323"><ele>673.72</ele><time>2026-01-21T20:26:12.000Z</time></trkpt>
        <trkpt lat="29.5378244" lon="104.2701931"><ele>671.52</ele><time>2026-01-21T20:26:40.000Z</time></trkpt>
        <trkpt lat="29.5377431" lon="104.2701297"><ele>669.19</ele><time>2026-01-21T20:26:56.000Z</time></trkpt>
        <trkpt lat="29.537754" lon="104.2702316"><ele>667.4</ele><time>2026-01-21T20:28:40.000Z</time></trkpt>
        <trkpt lat="29.5376925" lon="104.2703103"><ele>665.82</ele><time>2026-01-21T20:29:10.000Z</time></trkpt>
        <trkpt lat="29.5375988" lon="104.2703233"><ele>664.12</ele><time>2026-01-21T20:30:02.000Z</time></trkpt>
        <trkpt lat="29.5375037" lon="104.2703273"><ele>661.16</ele><time>2026-01-21T20:30:34.000Z</time></trkpt>
        <trkpt lat="29.5374143" lon="104.2702967"><ele>657.54</ele><time>2026-01-21T20:31:30.000Z</time></trkpt>
        <trkpt lat="29.5373853" lon="104.2703647"><ele>651.59</ele><time>2026-01-21T20:31:48.000Z</time></trkpt>
        <trkpt lat="29.5373317" lon="104.2703389"><ele>647.95</ele><time>2026-01-21T20:32:04.000Z</time></trkpt>
        <trkpt lat="29.5373372" lon="104.2702439"><ele>644.06</ele><time>2026-01-21T20:32:22.000Z</time></trkpt>
        <trkpt lat="29.537366" lon="104.2701338"><ele>639.55</ele><time>2026-01-21T20:32:42.000Z</time></trkpt>
        <trkpt lat="29.5373066" lon="104.2700664"><ele>634.99</ele><time>2026-01-21T20:32:56.000Z</time></trkpt>
        <trkpt lat="29.5372261" lon="104.2699917"><ele>632.88</ele><time>2026-01-21T20:33:20.000Z</time></trkpt>
        <trkpt lat="29.5371943" lon="104.2698861"><ele>628.63</ele><time>2026-01-21T20:33:30.000Z</time></trkpt>
        <trkpt lat="29.5372165" lon="104.2697793"><ele>625.63</ele><time>2026-01-21T20:33:42.000Z</time></trkpt>
        <trkpt lat="29.5372535" lon="104.269673"><ele>623.64</ele><time>2026-01-21T20:33:52.000Z</time></trkpt>
        <trkpt lat="29.5372612" lon="104.2695646"><ele>621.76</ele><time>2026-01-21T20:34:04.000Z</time></trkpt>
        <trkpt lat="29.5373413" lon="104.2695143"><ele>619.8</ele><time>2026-01-21T20:34:40.000Z</time></trkpt>
        <trkpt lat="29.5374364" lon="104.2694925"><ele>616.85</ele><time>2026-01-21T20:34:46.000Z</time></trkpt>
        <trkpt lat="29.5375351" lon="104.2694861"><ele>614.17</ele><time>2026-01-21T20:34:56.000Z</time></trkpt>
        <trkpt lat="29.5376208" lon="104.2694735"><ele>612.03</ele><time>2026-01-21T20:35:08.000Z</time></trkpt>
        <trkpt lat="29.5377073" lon="104.2695075"><ele>610.88</ele><time>2026-01-21T20:35:28.000Z</time></trkpt>
        <trkpt lat="29.5376573" lon="104.2695193"><ele>609.02</ele><time>2026-01-21T20:36:20.000Z</time></trkpt>
        <trkpt lat="29.5375628" lon="104.2695435"><ele>608.69</ele><time>2026-01-21T20:36:30.000Z</time></trkpt>
        <trkpt lat="29.5374478" lon="104.2695341"><ele>608.59</ele><time>2026-01-21T20:36:42.000Z</time></trkpt>
        <trkpt lat="29.5373538" lon="104.2694808"><ele>608.46</ele><time>2026-01-21T20:36:54.000Z</time></trkpt>
        <trkpt lat="29.5372815" lon="104.269404"><ele>608.12</ele><time>2026-01-21T20:37:06.000Z</time></trkpt>
        <trkpt lat="29.5371965" lon="104.2693453"><ele>607.15</ele><time>2026-01-21T20:37:16.000Z</time></trkpt>
        <trkpt lat="29.5372443" lon="104.2692957"><ele>606.44</ele><time>2026-01-21T20:37:38.000Z</time></trkpt>
        <trkpt lat="29.5373436" lon="104.2692597"><ele>603.78</ele><time>2026-01-21T20:37:50.000Z</time></trkpt>
        <trkpt lat="29.5374443" lon="104.2692839"><ele>601.74</ele><time>2026-01-21T20:38:00.000Z</time></trkpt>
        <trkpt lat="29.5375515" lon="104.2693065"><ele>599.43</ele><time>2026-01-21T20:38:10.000Z</time></trkpt>
        <trkpt lat="29.5376516" lon="104.2693298"><ele>597.3</ele><time>2026-01-21T20:38:20.000Z</time></trkpt>
        <trkpt lat="29.5377467" lon="104.2693752"><ele>594.94</ele><time>2026-01-21T20:38:32.000Z</time></trkpt>
        <trkpt lat="29.5378417" lon="104.269384"><ele>593.51</ele><time>2026-01-21T20:38:42.000Z</time></trkpt>
        <trkpt lat="29.5379327" lon="104.269371"><ele>590.68</ele><time>2026-01-21T20:38:54.000Z</time></trkpt>
        <trkpt lat="29.5380295" lon="104.2693718"><ele>587.92</ele><time>2026-01-21T20:39:08.000Z</time></trkpt>
        <trkpt lat="29.5381224" lon="104.2693578"><ele>585.81</ele><time>2026-01-21T20:39:27.000Z</time></trkpt>
        <trkpt lat="29.5382132" lon="104.2693343"><ele>584.24</ele><time>2026-01-21T20:39:41.000Z</time></trkpt>
        <trkpt lat="29.538228" lon="104.2694053"><ele>581.69</ele><time>2026-01-21T20:40:03.000Z</time></trkpt>
        <trkpt lat="29.538269" lon="104.2695148"><ele>581.08</ele><time>2026-01-21T20:41:19.000Z</time></trkpt>
        <trkpt lat="29.5381863" lon="104.269558"><ele>586.25</ele><time>2026-01-21T20:44:26.000Z</time></trkpt>
        <trkpt lat="29.5382586" lon="104.269637"><ele>593.07</ele><time>2026-01-21T20:45:31.000Z</time></trkpt>
        <trkpt lat="29.5382259" lon="104.2698806"><ele>597.68</ele><time>2026-01-21T20:45:56.000Z</time></trkpt>
        <trkpt lat="29.5383802" lon="104.26985"><ele>597.08</ele><time>2026-01-21T20:46:03.000Z</time></trkpt>
        <trkpt lat="29.5383521" lon="104.2697179"><ele>600.78</ele><time>2026-01-21T20:47:23.000Z</time></trkpt>
        <trkpt lat="29.5382614" lon="104.2696881"><ele>604.17</ele><time>2026-01-21T20:47:37.000Z</time></trkpt>
        <trkpt lat="29.5381965" lon="104.2696107"><ele>605.88</ele><time>2026-01-21T20:47:51.000Z</time></trkpt>
        <trkpt lat="29.5382211" lon="104.2695006"><ele>606.32</ele><time>2026-01-21T20:49:14.000Z</time></trkpt>
        <trkpt lat="29.5383201" lon="104.2694818"><ele>604.3</ele><time>2026-01-21T20:49:55.000Z</time></trkpt>
        <trkpt lat="29.538318" lon="104.2694736"><ele>601.21</ele><time>2026-01-21T20:50:02.000Z</time></trkpt>
        <trkpt lat="29.5382683" lon="104.2694028"><ele>600.08</ele><time>2026-01-21T20:51:01.000Z</time></trkpt>
        <trkpt lat="29.5381802" lon="104.2693962"><ele>596.59</ele><time>2026-01-21T20:51:41.000Z</time></trkpt>
        <trkpt lat="29.5382164" lon="104.2693762"><ele>592.28</ele><time>2026-01-21T20:52:13.000Z</time></trkpt>
        <trkpt lat="29.5381804" lon="104.2693097"><ele>587.63</ele><time>2026-01-21T20:52:59.000Z</time></trkpt>
        <trkpt lat="29.5382619" lon="104.2693236"><ele>585.46</ele><time>2026-01-21T20:54:45.000Z</time></trkpt>
        <trkpt lat="29.538349" lon="104.2693525"><ele>582.72</ele><time>2026-01-21T20:55:01.000Z</time></trkpt>
        <trkpt lat="29.5384315" lon="104.2694132"><ele>578.56</ele><time>2026-01-21T20:55:13.000Z</time></trkpt>
        <trkpt lat="29.538522" lon="104.2694605"><ele>575.06</ele><time>2026-01-21T20:55:27.000Z</time></trkpt>
        <trkpt lat="29.5385769" lon="104.269527"><ele>572.11</ele><time>2026-01-21T20:55:39.000Z</time></trkpt>
        <trkpt lat="29.538655" lon="104.2695763"><ele>569.46</ele><time>2026-01-21T20:55:57.000Z</time></trkpt>
        <trkpt lat="29.5387405" lon="104.2695632"><ele>565.72</ele><time>2026-01-21T20:56:45.000Z</time></trkpt>
        <trkpt lat="29.5388175" lon="104.2694667"><ele>563.4</ele><time>2026-01-21T20:57:55.000Z</time></trkpt>
        <trkpt lat="29.5388568" lon="104.2693652"><ele>561.82</ele><time>2026-01-21T20:58:03.000Z</time></trkpt>
        <trkpt lat="29.538872" lon="104.2692478"><ele>560.36</ele><time>2026-01-21T20:58:13.000Z</time></trkpt>
        <trkpt lat="29.5388699" lon="104.2691252"><ele>559.09</ele><time>2026-01-21T20:58:23.000Z</time></trkpt>
        <trkpt lat="29.5388835" lon="104.2690155"><ele>557.95</ele><time>2026-01-21T20:58:33.000Z</time></trkpt>
        <trkpt lat="29.5389076" lon="104.268915"><ele>557.13</ele><time>2026-01-21T20:58:43.000Z</time></trkpt>
        <trkpt lat="29.5389488" lon="104.2688114"><ele>556.13</ele><time>2026-01-21T20:58:55.000Z</time></trkpt>
        <trkpt lat="29.5389727" lon="104.2687807"><ele>556.18</ele><time>2026-01-21T20:58:57.000Z</time></trkpt>
        <trkpt lat="29.5389881" lon="104.2686944"><ele>555.64</ele><time>2026-01-21T20:59:19.000Z</time></trkpt>
        <trkpt lat="29.5389862" lon="104.2685902"><ele>554.96</ele><time>2026-01-21T20:59:31.000Z</time></trkpt>
        <trkpt lat="29.539026" lon="104.268489"><ele>554.51</ele><time>2026-01-21T21:01:03.000Z</time></trkpt>
        <trkpt lat="29.539058" lon="104.2683896"><ele>553.74</ele><time>2026-01-21T21:01:13.000Z</time></trkpt>
        <trkpt lat="29.539058" lon="104.2682848"><ele>553.26</ele><time>2026-01-21T21:01:23.000Z</time></trkpt>
        <trkpt lat="29.5390287" lon="104.2681875"><ele>553</ele><time>2026-01-21T21:01:33.000Z</time></trkpt>
        <trkpt lat="29.5389697" lon="104.2681011"><ele>552.81</ele><time>2026-01-21T21:01:43.000Z</time></trkpt>
        <trkpt lat="29.5389033" lon="104.2680183"><ele>552.88</ele><time>2026-01-21T21:01:53.000Z</time></trkpt>
        <trkpt lat="29.5388279" lon="104.2679415"><ele>552.64</ele><time>2026-01-21T21:02:03.000Z</time></trkpt>
        <trkpt lat="29.5387889" lon="104.267904"><ele>552.16</ele><time>2026-01-21T21:02:09.000Z</time></trkpt>
        <trkpt lat="29.5388323" lon="104.2678441"><ele>551.74</ele><time>2026-01-21T21:02:49.000Z</time></trkpt>
        <trkpt lat="29.5388713" lon="104.2677438"><ele>550.66</ele><time>2026-01-21T21:03:13.000Z</time></trkpt>
        <trkpt lat="29.538895" lon="104.2676275"><ele>548.96</ele><time>2026-01-21T21:03:27.000Z</time></trkpt>
        <trkpt lat="29.5389685" lon="104.2675572"><ele>546.91</ele><time>2026-01-21T21:03:41.000Z</time></trkpt>
        <trkpt lat="29.539011" lon="104.267467"><ele>544.24</ele><time>2026-01-21T21:03:51.000Z</time></trkpt>
        <trkpt lat="29.5390651" lon="104.2673829"><ele>541.59</ele><time>2026-01-21T21:04:19.000Z</time></trkpt>
        <trkpt lat="29.5391016" lon="104.267285"><ele>539.68</ele><time>2026-01-21T21:04:31.000Z</time></trkpt>
        <trkpt lat="29.5391339" lon="104.2671839"><ele>538.17</ele><time>2026-01-21T21:05:21.000Z</time></trkpt>
        <trkpt lat="29.5391583" lon="104.267079"><ele>535.97</ele><time>2026-01-21T21:05:47.000Z</time></trkpt>
        <trkpt lat="29.539195" lon="104.2669807"><ele>533.23</ele><time>2026-01-21T21:06:05.000Z</time></trkpt>
        <trkpt lat="29.5391369" lon="104.2669435"><ele>530.82</ele><time>2026-01-21T21:06:39.000Z</time></trkpt>
        <trkpt lat="29.5390882" lon="104.2668681"><ele>528.66</ele><time>2026-01-21T21:07:23.000Z</time></trkpt>
        <trkpt lat="29.5390162" lon="104.2667991"><ele>525.82</ele><time>2026-01-21T21:07:51.000Z</time></trkpt>
        <trkpt lat="29.5390005" lon="104.266705"><ele>523.49</ele><time>2026-01-21T21:08:25.000Z</time></trkpt>
        <trkpt lat="29.5390438" lon="104.2666149"><ele>520.11</ele><time>2026-01-21T21:08:39.000Z</time></trkpt>
        <trkpt lat="29.5391299" lon="104.2665558"><ele>518.16</ele><time>2026-01-21T21:08:51.000Z</time></trkpt>
        <trkpt lat="29.5392178" lon="104.2664963"><ele>516.51</ele><time>2026-01-21T21:09:21.000Z</time></trkpt>
        <trkpt lat="29.5392168" lon="104.2663968"><ele>514.51</ele><time>2026-01-21T21:09:43.000Z</time></trkpt>
        <trkpt lat="29.5392175" lon="104.2662866"><ele>512.52</ele><time>2026-01-21T21:09:59.000Z</time></trkpt>
        <trkpt lat="29.5392193" lon="104.2661763"><ele>511.34</ele><time>2026-01-21T21:10:17.000Z</time></trkpt>
        <trkpt lat="29.539224" lon="104.2660608"><ele>509.38</ele><time>2026-01-21T21:10:31.000Z</time></trkpt>
        <trkpt lat="29.5392619" lon="104.2659513"><ele>506.91</ele><time>2026-01-21T21:10:43.000Z</time></trkpt>
        <trkpt lat="29.5392938" lon="104.2658473"><ele>504.26</ele><time>2026-01-21T21:10:59.000Z</time></trkpt>
        <trkpt lat="29.5393088" lon="104.2658059"><ele>501.81</ele><time>2026-01-21T21:11:03.000Z</time></trkpt>
        <trkpt lat="29.5393469" lon="104.2657288"><ele>500.36</ele><time>2026-01-21T21:11:27.000Z</time></trkpt>
        <trkpt lat="29.5393717" lon="104.2656324"><ele>496.91</ele><time>2026-01-21T21:11:41.000Z</time></trkpt>
        <trkpt lat="29.5394048" lon="104.2655304"><ele>495.14</ele><time>2026-01-21T21:11:55.000Z</time></trkpt>
        <trkpt lat="29.5394637" lon="104.2654305"><ele>492.67</ele><time>2026-01-21T21:12:07.000Z</time></trkpt>
        <trkpt lat="29.5395184" lon="104.265339"><ele>491.11</ele><time>2026-01-21T21:12:17.000Z</time></trkpt>
        <trkpt lat="29.5395699" lon="104.265244"><ele>489.75</ele><time>2026-01-21T21:12:27.000Z</time></trkpt>
        <trkpt lat="29.5396171" lon="104.2651485"><ele>488.8</ele><time>2026-01-21T21:12:37.000Z</time></trkpt>
        <trkpt lat="29.5396481" lon="104.265094"><ele>489.21</ele><time>2026-01-21T21:12:43.000Z</time></trkpt>
        <trkpt lat="29.5396725" lon="104.2649898"><ele>489.71</ele><time>2026-01-21T21:13:47.000Z</time></trkpt>
        <trkpt lat="29.5396599" lon="104.2648739"><ele>489.23</ele><time>2026-01-21T21:13:59.000Z</time></trkpt>
        <trkpt lat="29.5396079" lon="104.2647842"><ele>489.04</ele><time>2026-01-21T21:14:11.000Z</time></trkpt>
        <trkpt lat="29.5395384" lon="104.2647144"><ele>488.9</ele><time>2026-01-21T21:14:53.000Z</time></trkpt>
        <trkpt lat="29.5394734" lon="104.2646282"><ele>488.55</ele><time>2026-01-21T21:15:05.000Z</time></trkpt>
        <trkpt lat="29.5394652" lon="104.2645289"><ele>487.87</ele><time>2026-01-21T21:15:15.000Z</time></trkpt>
        <trkpt lat="29.5395255" lon="104.2644585"><ele>486.85</ele><time>2026-01-21T21:15:27.000Z</time></trkpt>
        <trkpt lat="29.5395995" lon="104.2643837"><ele>486.21</ele><time>2026-01-21T21:15:39.000Z</time></trkpt>
        <trkpt lat="29.5396677" lon="104.2643045"><ele>484.55</ele><time>2026-01-21T21:15:53.000Z</time></trkpt>
        <trkpt lat="29.5397126" lon="104.2642108"><ele>483.38</ele><time>2026-01-21T21:16:03.000Z</time></trkpt>
        <trkpt lat="29.5397414" lon="104.2641057"><ele>482.11</ele><time>2026-01-21T21:16:19.000Z</time></trkpt>
        <trkpt lat="29.5398159" lon="104.264083"><ele>481.55</ele><time>2026-01-21T21:17:03.000Z</time></trkpt>
        <trkpt lat="29.5398875" lon="104.2641546"><ele>479.96</ele><time>2026-01-21T21:17:11.000Z</time></trkpt>
        <trkpt lat="29.5399651" lon="104.2642478"><ele>478.27</ele><time>2026-01-21T21:17:21.000Z</time></trkpt>
        <trkpt lat="29.5400242" lon="104.2643555"><ele>476.44</ele><time>2026-01-21T21:17:31.000Z</time></trkpt>
        <trkpt lat="29.5400105" lon="104.2643967"><ele>475.17</ele><time>2026-01-21T21:17:35.000Z</time></trkpt>
        <trkpt lat="29.5399577" lon="104.2643331"><ele>474.91</ele><time>2026-01-21T21:17:53.000Z</time></trkpt>
        <trkpt lat="29.5400104" lon="104.2643302"><ele>475.71</ele><time>2026-01-21T21:18:19.000Z</time></trkpt>
        <trkpt lat="29.5401025" lon="104.2643345"><ele>475.19</ele><time>2026-01-21T21:18:29.000Z</time></trkpt>
        <trkpt lat="29.5402104" lon="104.2643253"><ele>475.45</ele><time>2026-01-21T21:18:41.000Z</time></trkpt>
        <trkpt lat="29.5403131" lon="104.2643"><ele>474.35</ele><time>2026-01-21T21:18:49.000Z</time></trkpt>
        <trkpt lat="29.5404156" lon="104.2643273"><ele>473.51</ele><time>2026-01-21T21:18:57.000Z</time></trkpt>
        <trkpt lat="29.5405068" lon="104.2643779"><ele>471.8</ele><time>2026-01-21T21:19:05.000Z</time></trkpt>
        <trkpt lat="29.5405872" lon="104.2644613"><ele>470.03</ele><time>2026-01-21T21:19:15.000Z</time></trkpt>
        <trkpt lat="29.5406735" lon="104.2645411"><ele>467.67</ele><time>2026-01-21T21:19:25.000Z</time></trkpt>
        <trkpt lat="29.5407562" lon="104.2646013"><ele>465.58</ele><time>2026-01-21T21:19:33.000Z</time></trkpt>
        <trkpt lat="29.5408425" lon="104.2646464"><ele>463.45</ele><time>2026-01-21T21:19:41.000Z</time></trkpt>
        <trkpt lat="29.5409369" lon="104.264677"><ele>462.29</ele><time>2026-01-21T21:19:49.000Z</time></trkpt>
        <trkpt lat="29.541031" lon="104.2646569"><ele>460.85</ele><time>2026-01-21T21:19:57.000Z</time></trkpt>
        <trkpt lat="29.541133" lon="104.2646138"><ele>458.97</ele><time>2026-01-21T21:20:07.000Z</time></trkpt>
        <trkpt lat="29.5412329" lon="104.2645806"><ele>457.49</ele><time>2026-01-21T21:20:17.000Z</time></trkpt>
        <trkpt lat="29.5413271" lon="104.2645839"><ele>455.79</ele><time>2026-01-21T21:20:27.000Z</time></trkpt>
        <trkpt lat="29.5413951" lon="104.2646581"><ele>453.78</ele><time>2026-01-21T21:20:37.000Z</time></trkpt>
        <trkpt lat="29.5414695" lon="104.264745"><ele>452.47</ele><time>2026-01-21T21:20:47.000Z</time></trkpt>
        <trkpt lat="29.5415541" lon="104.2648131"><ele>451.19</ele><time>2026-01-21T21:20:57.000Z</time></trkpt>
        <trkpt lat="29.5416448" lon="104.2648699"><ele>450.05</ele><time>2026-01-21T21:21:07.000Z</time></trkpt>
        <trkpt lat="29.5417497" lon="104.2648799"><ele>449.38</ele><time>2026-01-21T21:21:17.000Z</time></trkpt>
        <trkpt lat="29.5418494" lon="104.2648775"><ele>448.19</ele><time>2026-01-21T21:21:27.000Z</time></trkpt>
        <trkpt lat="29.5419455" lon="104.2648912"><ele>447.08</ele><time>2026-01-21T21:21:37.000Z</time></trkpt>
        <trkpt lat="29.5419875" lon="104.2648804"><ele>445.67</ele><time>2026-01-21T21:21:43.000Z</time></trkpt>
        <trkpt lat="29.5420453" lon="104.264935"><ele>444.92</ele><time>2026-01-21T21:22:07.000Z</time></trkpt>
        <trkpt lat="29.5421376" lon="104.2649729"><ele>444.3</ele><time>2026-01-21T21:22:19.000Z</time></trkpt>
        <trkpt lat="29.5422373" lon="104.2649814"><ele>443.73</ele><time>2026-01-21T21:22:29.000Z</time></trkpt>
        <trkpt lat="29.5423429" lon="104.2649612"><ele>442.39</ele><time>2026-01-21T21:22:39.000Z</time></trkpt>
        <trkpt lat="29.5424452" lon="104.2649337"><ele>441.19</ele><time>2026-01-21T21:22:49.000Z</time></trkpt>
        <trkpt lat="29.5425504" lon="104.2649188"><ele>440.31</ele><time>2026-01-21T21:23:01.000Z</time></trkpt>
        <trkpt lat="29.5426555" lon="104.2649119"><ele>438.96</ele><time>2026-01-21T21:23:13.000Z</time></trkpt>
        <trkpt lat="29.5427532" lon="104.2649019"><ele>436.55</ele><time>2026-01-21T21:23:23.000Z</time></trkpt>
        <trkpt lat="29.5428511" lon="104.2648866"><ele>433.69</ele><time>2026-01-21T21:23:35.000Z</time></trkpt>
        <trkpt lat="29.5429447" lon="104.2648981"><ele>431.48</ele><time>2026-01-21T21:23:49.000Z</time></trkpt>
        <trkpt lat="29.5430318" lon="104.2649581"><ele>429.34</ele><time>2026-01-21T21:24:01.000Z</time></trkpt>
        <trkpt lat="29.5431261" lon="104.265008"><ele>427.1</ele><time>2026-01-21T21:24:11.000Z</time></trkpt>
        <trkpt lat="29.5432191" lon="104.2650545"><ele>425.18</ele><time>2026-01-21T21:24:21.000Z</time></trkpt>
        <trkpt lat="29.5433131" lon="104.2651048"><ele>425.77</ele><time>2026-01-21T21:24:31.000Z</time></trkpt>
        <trkpt lat="29.5434144" lon="104.2651444"><ele>425.32</ele><time>2026-01-21T21:24:41.000Z</time></trkpt>
        <trkpt lat="29.5435169" lon="104.2651835"><ele>424.89</ele><time>2026-01-21T21:24:51.000Z</time></trkpt>
        <trkpt lat="29.5436158" lon="104.2652218"><ele>425.08</ele><time>2026-01-21T21:25:01.000Z</time></trkpt>
        <trkpt lat="29.5437172" lon="104.2652561"><ele>424.83</ele><time>2026-01-21T21:25:11.000Z</time></trkpt>
        <trkpt lat="29.5438236" lon="104.2652669"><ele>424.51</ele><time>2026-01-21T21:25:21.000Z</time></trkpt>
        <trkpt lat="29.5439331" lon="104.2652789"><ele>423.02</ele><time>2026-01-21T21:25:31.000Z</time></trkpt>
        <trkpt lat="29.5440074" lon="104.265313"><ele>421.32</ele><time>2026-01-21T21:25:39.000Z</time></trkpt>
        <trkpt lat="29.5440917" lon="104.2653524"><ele>420.41</ele><time>2026-01-21T21:25:57.000Z</time></trkpt>
        <trkpt lat="29.5441798" lon="104.2653887"><ele>420.21</ele><time>2026-01-21T21:26:07.000Z</time></trkpt>
        <trkpt lat="29.544262" lon="104.2654337"><ele>420.54</ele><time>2026-01-21T21:26:15.000Z</time></trkpt>
        <trkpt lat="29.5443592" lon="104.2654369"><ele>422.05</ele><time>2026-01-21T21:26:25.000Z</time></trkpt>
        <trkpt lat="29.5444449" lon="104.2654757"><ele>422.19</ele><time>2026-01-21T21:26:39.000Z</time></trkpt>
        <trkpt lat="29.5445368" lon="104.265515"><ele>421.84</ele><time>2026-01-21T21:26:51.000Z</time></trkpt>
        <trkpt lat="29.5446243" lon="104.2655512"><ele>422.83</ele><time>2026-01-21T21:27:01.000Z</time></trkpt>
        <trkpt lat="29.5447183" lon="104.2655911"><ele>424.4</ele><time>2026-01-21T21:27:11.000Z</time></trkpt>
        <trkpt lat="29.5448148" lon="104.2656162"><ele>424.43</ele><time>2026-01-21T21:27:21.000Z</time></trkpt>
        <trkpt lat="29.5449082" lon="104.2656506"><ele>425.27</ele><time>2026-01-21T21:27:31.000Z</time></trkpt>
        <trkpt lat="29.544991" lon="104.265704"><ele>424.82</ele><time>2026-01-21T21:27:41.000Z</time></trkpt>
        <trkpt lat="29.5450799" lon="104.265751"><ele>423.72</ele><time>2026-01-21T21:27:51.000Z</time></trkpt>
        <trkpt lat="29.5451701" lon="104.2657958"><ele>422.53</ele><time>2026-01-21T21:28:01.000Z</time></trkpt>
        <trkpt lat="29.5452657" lon="104.2658359"><ele>421.72</ele><time>2026-01-21T21:28:11.000Z</time></trkpt>
        <trkpt lat="29.5453521" lon="104.2658931"><ele>421.29</ele><time>2026-01-21T21:28:21.000Z</time></trkpt>
        <trkpt lat="29.5454366" lon="104.2659569"><ele>420.64</ele><time>2026-01-21T21:28:31.000Z</time></trkpt>
        <trkpt lat="29.5455203" lon="104.2660112"><ele>420.1</ele><time>2026-01-21T21:28:42.000Z</time></trkpt>
        <trkpt lat="29.5456079" lon="104.2660584"><ele>419.2</ele><time>2026-01-21T21:28:51.000Z</time></trkpt>
        <trkpt lat="29.5456975" lon="104.2660945"><ele>417.93</ele><time>2026-01-21T21:29:01.000Z</time></trkpt>
        <trkpt lat="29.5457867" lon="104.2661179"><ele>415.41</ele><time>2026-01-21T21:29:11.000Z</time></trkpt>
        <trkpt lat="29.5458792" lon="104.2661566"><ele>412.69</ele><time>2026-01-21T21:29:21.000Z</time></trkpt>
        <trkpt lat="29.5459696" lon="104.2662112"><ele>410.99</ele><time>2026-01-21T21:29:31.000Z</time></trkpt>
        <trkpt lat="29.5460595" lon="104.2662698"><ele>410.04</ele><time>2026-01-21T21:29:41.000Z</time></trkpt>
        <trkpt lat="29.5461513" lon="104.2663258"><ele>409.63</ele><time>2026-01-21T21:29:53.000Z</time></trkpt>
        <trkpt lat="29.5462511" lon="104.2663415"><ele>409.63</ele><time>2026-01-21T21:30:05.000Z</time></trkpt>
        <trkpt lat="29.5463183" lon="104.2662706"><ele>410.87</ele><time>2026-01-21T21:30:19.000Z</time></trkpt>
        <trkpt lat="29.5463466" lon="104.2661587"><ele>412.76</ele><time>2026-01-21T21:30:33.000Z</time></trkpt>
        <trkpt lat="29.5463798" lon="104.2660421"><ele>414.61</ele><time>2026-01-21T21:30:45.000Z</time></trkpt>
        <trkpt lat="29.5464182" lon="104.2660023"><ele>416.25</ele><time>2026-01-21T21:30:51.000Z</time></trkpt>
        <trkpt lat="29.5464876" lon="104.2659403"><ele>417.09</ele><time>2026-01-21T21:31:27.000Z</time></trkpt>
        <trkpt lat="29.5465458" lon="104.2658549"><ele>418.36</ele><time>2026-01-21T21:31:39.000Z</time></trkpt>
        <trkpt lat="29.5465899" lon="104.2657588"><ele>419.37</ele><time>2026-01-21T21:31:51.000Z</time></trkpt>
        <trkpt lat="29.5466452" lon="104.2656695"><ele>420.63</ele><time>2026-01-21T21:32:03.000Z</time></trkpt>
        <trkpt lat="29.5467167" lon="104.2655879"><ele>421.83</ele><time>2026-01-21T21:33:33.000Z</time></trkpt>
        <trkpt lat="29.5468048" lon="104.2655379"><ele>422.5</ele><time>2026-01-21T21:33:45.000Z</time></trkpt>
        <trkpt lat="29.5468964" lon="104.2655722"><ele>423.03</ele><time>2026-01-21T21:33:59.000Z</time></trkpt>
        <trkpt lat="29.5469703" lon="104.2656524"><ele>422.94</ele><time>2026-01-21T21:34:11.000Z</time></trkpt>
        <trkpt lat="29.5470242" lon="104.2657565"><ele>422.54</ele><time>2026-01-21T21:34:23.000Z</time></trkpt>
        <trkpt lat="29.5470294" lon="104.2658676"><ele>422.29</ele><time>2026-01-21T21:34:37.000Z</time></trkpt>
        <trkpt lat="29.5470067" lon="104.2659901"><ele>422.35</ele><time>2026-01-21T21:34:57.000Z</time></trkpt>
        <trkpt lat="29.5469567" lon="104.2660953"><ele>422.25</ele><time>2026-01-21T21:35:07.000Z</time></trkpt>
        <trkpt lat="29.546889" lon="104.2661969"><ele>422.39</ele><time>2026-01-21T21:35:19.000Z</time></trkpt>
        <trkpt lat="29.5468462" lon="104.2663035"><ele>422.5</ele><time>2026-01-21T21:35:29.000Z</time></trkpt>
        <trkpt lat="29.5468087" lon="104.2664104"><ele>422.69</ele><time>2026-01-21T21:35:41.000Z</time></trkpt>
        <trkpt lat="29.5467505" lon="104.2665106"><ele>422.49</ele><time>2026-01-21T21:35:51.000Z</time></trkpt>
        <trkpt lat="29.5466908" lon="104.2666004"><ele>423.59</ele><time>2026-01-21T21:35:59.000Z</time></trkpt>
        <trkpt lat="29.546647" lon="104.2666976"><ele>424.84</ele><time>2026-01-21T21:36:09.000Z</time></trkpt>
        <trkpt lat="29.5466492" lon="104.266809"><ele>425.47</ele><time>2026-01-21T21:36:25.000Z</time></trkpt>
        <trkpt lat="29.5466682" lon="104.2669246"><ele>425.26</ele><time>2026-01-21T21:36:35.000Z</time></trkpt>
        <trkpt lat="29.5466581" lon="104.2670427"><ele>425.42</ele><time>2026-01-21T21:36:47.000Z</time></trkpt>
        <trkpt lat="29.5466356" lon="104.2671581"><ele>426.25</ele><time>2026-01-21T21:36:57.000Z</time></trkpt>
        <trkpt lat="29.5466347" lon="104.2672692"><ele>426.97</ele><time>2026-01-21T21:37:07.000Z</time></trkpt>
        <trkpt lat="29.5466562" lon="104.2673815"><ele>427.52</ele><time>2026-01-21T21:37:19.000Z</time></trkpt>
        <trkpt lat="29.5466813" lon="104.2674855"><ele>428.7</ele><time>2026-01-21T21:37:29.000Z</time></trkpt>
        <trkpt lat="29.5467043" lon="104.26759"><ele>429.9</ele><time>2026-01-21T21:37:41.000Z</time></trkpt>
        <trkpt lat="29.5467325" lon="104.2676899"><ele>431.21</ele><time>2026-01-21T21:37:53.000Z</time></trkpt>
        <trkpt lat="29.546779" lon="104.2677915"><ele>433.46</ele><time>2026-01-21T21:38:05.000Z</time></trkpt>
        <trkpt lat="29.5468362" lon="104.2678854"><ele>435.77</ele><time>2026-01-21T21:38:29.000Z</time></trkpt>
        <trkpt lat="29.5469028" lon="104.2679613"><ele>437.73</ele><time>2026-01-21T21:38:39.000Z</time></trkpt>
        <trkpt lat="29.5469693" lon="104.2680357"><ele>439.42</ele><time>2026-01-21T21:38:51.000Z</time></trkpt>
        <trkpt lat="29.5470357" lon="104.2681238"><ele>440.48</ele><time>2026-01-21T21:39:03.000Z</time></trkpt>
        <trkpt lat="29.5471128" lon="104.2681892"><ele>440.74</ele><time>2026-01-21T21:39:13.000Z</time></trkpt>
        <trkpt lat="29.5472002" lon="104.2682486"><ele>441.49</ele><time>2026-01-21T21:39:25.000Z</time></trkpt>
        <trkpt lat="29.5472936" lon="104.2683034"><ele>441.38</ele><time>2026-01-21T21:39:37.000Z</time></trkpt>
        <trkpt lat="29.5473688" lon="104.2683727"><ele>439.88</ele><time>2026-01-21T21:39:47.000Z</time></trkpt>
        <trkpt lat="29.5474481" lon="104.2684389"><ele>438.88</ele><time>2026-01-21T21:39:57.000Z</time></trkpt>
        <trkpt lat="29.5475217" lon="104.26851"><ele>438.12</ele><time>2026-01-21T21:40:07.000Z</time></trkpt>
        <trkpt lat="29.5475942" lon="104.2685762"><ele>436.4</ele><time>2026-01-21T21:40:17.000Z</time></trkpt>
        <trkpt lat="29.5476678" lon="104.2686402"><ele>434.92</ele><time>2026-01-21T21:40:29.000Z</time></trkpt>
        <trkpt lat="29.547762" lon="104.2686711"><ele>433.5</ele><time>2026-01-21T21:40:41.000Z</time></trkpt>
        <trkpt lat="29.5478562" lon="104.2686818"><ele>432.53</ele><time>2026-01-21T21:40:53.000Z</time></trkpt>
        <trkpt lat="29.5479485" lon="104.2686997"><ele>430.8</ele><time>2026-01-21T21:41:05.000Z</time></trkpt>
        <trkpt lat="29.5480418" lon="104.2687398"><ele>428.25</ele><time>2026-01-21T21:41:20.000Z</time></trkpt>
        <trkpt lat="29.5480978" lon="104.2688324"><ele>426.74</ele><time>2026-01-21T21:41:52.000Z</time></trkpt>
        <trkpt lat="29.5481454" lon="104.2689368"><ele>426.54</ele><time>2026-01-21T21:46:50.000Z</time></trkpt>
        <trkpt lat="29.5481984" lon="104.2690365"><ele>424.62</ele><time>2026-01-21T21:49:38.000Z</time></trkpt>
        <trkpt lat="29.5482464" lon="104.2691389"><ele>423.95</ele><time>2026-01-21T21:49:50.000Z</time></trkpt>
        <trkpt lat="29.5482907" lon="104.2692417"><ele>423.08</ele><time>2026-01-21T21:50:02.000Z</time></trkpt>
        <trkpt lat="29.5483655" lon="104.2693632"><ele>422.62</ele><time>2026-01-21T21:51:34.000Z</time></trkpt>
        <trkpt lat="29.5484082" lon="104.2695058"><ele>423.83</ele><time>2026-01-21T21:51:38.000Z</time></trkpt>
        <trkpt lat="29.5486527" lon="104.2698172"><ele>426.22</ele><time>2026-01-21T21:51:46.000Z</time></trkpt>
        <trkpt lat="29.5488163" lon="104.269971"><ele>427.49</ele><time>2026-01-21T21:51:50.000Z</time></trkpt>
        <trkpt lat="29.5489267" lon="104.270053"><ele>429.31</ele><time>2026-01-21T21:51:54.000Z</time></trkpt>
        <trkpt lat="29.5490207" lon="104.2701123"><ele>431.61</ele><time>2026-01-21T21:52:02.000Z</time></trkpt>
        <trkpt lat="29.5491143" lon="104.2701843"><ele>433.61</ele><time>2026-01-21T21:52:08.000Z</time></trkpt>
        <trkpt lat="29.549175" lon="104.2702281"><ele>434.67</ele><time>2026-01-21T21:52:14.000Z</time></trkpt>
        <trkpt lat="29.5492554" lon="104.2702548"><ele>435.29</ele><time>2026-01-21T21:52:44.000Z</time></trkpt>
        <trkpt lat="29.549346" lon="104.2703156"><ele>434.86</ele><time>2026-01-21T21:52:48.000Z</time></trkpt>
        <trkpt lat="29.5494292" lon="104.2703857"><ele>434.05</ele><time>2026-01-21T21:52:52.000Z</time></trkpt>
        <trkpt lat="29.5494797" lon="104.27048"><ele>433.74</ele><time>2026-01-21T21:52:56.000Z</time></trkpt>
        <trkpt lat="29.5494788" lon="104.270662"><ele>433.5</ele><time>2026-01-21T21:53:00.000Z</time></trkpt>
        <trkpt lat="29.5494341" lon="104.2708075"><ele>434.07</ele><time>2026-01-21T21:53:02.000Z</time></trkpt>
        <trkpt lat="29.5493721" lon="104.270937"><ele>434.58</ele><time>2026-01-21T21:53:04.000Z</time></trkpt>
        <trkpt lat="29.5493073" lon="104.2710645"><ele>435.1</ele><time>2026-01-21T21:53:06.000Z</time></trkpt>
        <trkpt lat="29.5492377" lon="104.2712022"><ele>435.66</ele><time>2026-01-21T21:53:08.000Z</time></trkpt>
        <trkpt lat="29.5491663" lon="104.2713575"><ele>435.93</ele><time>2026-01-21T21:53:10.000Z</time></trkpt>
        <trkpt lat="29.5490941" lon="104.2715206"><ele>436.19</ele><time>2026-01-21T21:53:12.000Z</time></trkpt>
        <trkpt lat="29.5490173" lon="104.2716988"><ele>436.44</ele><time>2026-01-21T21:53:14.000Z</time></trkpt>
        <trkpt lat="29.5489374" lon="104.2718885"><ele>436.63</ele><time>2026-01-21T21:53:16.000Z</time></trkpt>
        <trkpt lat="29.5488584" lon="104.2720756"><ele>436.74</ele><time>2026-01-21T21:53:18.000Z</time></trkpt>
        <trkpt lat="29.5487795" lon="104.2722653"><ele>436.71</ele><time>2026-01-21T21:53:20.000Z</time></trkpt>
        <trkpt lat="29.5487017" lon="104.272457"><ele>436.86</ele><time>2026-01-21T21:53:22.000Z</time></trkpt>
        <trkpt lat="29.5486194" lon="104.2726475"><ele>437.02</ele><time>2026-01-21T21:53:24.000Z</time></trkpt>
        <trkpt lat="29.5485341" lon="104.272844"><ele>436.74</ele><time>2026-01-21T21:53:26.000Z</time></trkpt>
        <trkpt lat="29.5484527" lon="104.2730382"><ele>436.39</ele><time>2026-01-21T21:53:28.000Z</time></trkpt>
        <trkpt lat="29.5483713" lon="104.2732304"><ele>435.9</ele><time>2026-01-21T21:53:30.000Z</time></trkpt>
        <trkpt lat="29.5482958" lon="104.2734067"><ele>435.51</ele><time>2026-01-21T21:53:32.000Z</time></trkpt>
        <trkpt lat="29.548229" lon="104.2735615"><ele>435.45</ele><time>2026-01-21T21:53:34.000Z</time></trkpt>
        <trkpt lat="29.5481753" lon="104.2736917"><ele>435.22</ele><time>2026-01-21T21:53:36.000Z</time></trkpt>
        <trkpt lat="29.5481318" lon="104.2738078"><ele>434.98</ele><time>2026-01-21T21:53:38.000Z</time></trkpt>
        <trkpt lat="29.5480906" lon="104.2739152"><ele>434.63</ele><time>2026-01-21T21:53:40.000Z</time></trkpt>
      </trkseg>
  </trk>
</gpx>